createdAt,value
2018-07-06T00:00:19.428Z,99.99
2018-07-06T00:01:50.906Z,99.99
2018-07-06T00:03:22.486Z,99.99
2018-07-06T00:04:54.042Z,99.99
2018-07-06T00:06:25.614Z,99.99
2018-07-06T00:07:57.191Z,99.99
2018-07-06T00:09:28.759Z,99.99
2018-07-06T00:11:00.398Z,99.99
2018-07-06T00:12:32.102Z,99.99
2018-07-06T00:14:03.477Z,99.99
2018-07-06T00:15:35.049Z,99.99
2018-07-06T00:17:06.621Z,99.99
2018-07-06T00:18:38.393Z,99.99
2018-07-06T00:20:09.766Z,99.99
2018-07-06T00:21:41.338Z,99.99
2018-07-06T00:23:12.910Z,99.99
2018-07-06T00:24:44.483Z,99.99
2018-07-06T00:26:16.055Z,99.99
2018-07-06T00:27:47.626Z,99.99
2018-07-06T00:29:19.199Z,99.99
2018-07-06T00:30:50.771Z,99.99
2018-07-06T00:32:22.343Z,99.99
2018-07-06T00:33:53.916Z,99.99
2018-07-06T00:35:25.488Z,99.99
2018-07-06T00:36:57.161Z,99.99
2018-07-06T00:38:28.633Z,99.99
2018-07-06T00:40:00.205Z,99.99
2018-07-06T00:41:31.777Z,99.99
2018-07-06T00:43:03.349Z,99.99
2018-07-06T00:44:34.921Z,99.99
2018-07-06T00:46:06.494Z,99.99
2018-07-06T00:47:38.065Z,99.99
2018-07-06T00:49:09.638Z,99.99
2018-07-06T00:50:41.210Z,99.99
2018-07-06T00:52:12.782Z,99.99
2018-07-06T00:53:44.355Z,99.99
2018-07-06T00:55:16.026Z,99.99
2018-07-06T00:56:47.502Z,99.99
2018-07-06T00:58:19.071Z,99.99
2018-07-06T00:59:50.643Z,99.99
2018-07-06T01:01:22.215Z,99.99
2018-07-06T01:02:53.787Z,99.99
2018-07-06T01:04:25.359Z,99.99
2018-07-06T01:05:56.931Z,99.99
2018-07-06T01:07:28.503Z,99.99
2018-07-06T01:09:00.075Z,99.99
2018-07-06T01:10:31.647Z,99.99
2018-07-06T01:12:03.219Z,99.99
2018-07-06T01:13:35.141Z,99.99
2018-07-06T01:15:06.363Z,99.99
2018-07-06T01:16:37.934Z,99.99
2018-07-06T01:18:09.507Z,99.99
2018-07-06T01:19:41.081Z,99.99
2018-07-06T01:21:12.652Z,99.99
2018-07-06T01:22:44.222Z,99.99
2018-07-06T01:24:15.793Z,99.99
2018-07-06T01:25:47.368Z,99.99
2018-07-06T01:27:18.937Z,99.99
2018-07-06T01:28:50.509Z,99.99
2018-07-06T01:30:22.081Z,99.99
2018-07-06T01:31:53.753Z,99.99
2018-07-06T01:33:25.227Z,99.99
2018-07-06T01:34:56.801Z,99.99
2018-07-06T01:36:28.367Z,99.99
2018-07-06T01:37:59.941Z,99.99
2018-07-06T01:39:31.510Z,99.99
2018-07-06T01:41:03.082Z,99.99
2018-07-06T01:42:34.654Z,99.99
2018-07-06T01:44:06.225Z,99.99
2018-07-06T01:45:37.796Z,99.99
2018-07-06T01:47:09.368Z,99.99
2018-07-06T01:48:40.941Z,99.99
2018-07-06T01:50:12.831Z,99.99
2018-07-06T01:51:44.083Z,99.99
2018-07-06T01:53:15.654Z,99.99
2018-07-06T01:54:47.226Z,99.99
2018-07-06T01:56:18.797Z,99.99
2018-07-06T01:57:50.369Z,99.99
2018-07-06T01:59:21.941Z,99.99
2018-07-06T02:00:53.511Z,99.99
2018-07-06T02:02:25.084Z,99.99
2018-07-06T02:03:56.655Z,99.99
2018-07-06T02:05:28.226Z,99.99
2018-07-06T02:06:59.797Z,99.99
2018-07-06T02:08:31.468Z,99.99
2018-07-06T02:10:02.940Z,99.99
2018-07-06T02:11:34.511Z,99.99
2018-07-06T02:13:06.082Z,99.99
2018-07-06T02:14:37.760Z,99.99
2018-07-06T02:16:09.225Z,99.99
2018-07-06T02:17:40.796Z,99.99
2018-07-06T02:19:12.368Z,99.99
2018-07-06T02:20:44.039Z,99.99
2018-07-06T02:22:15.511Z,99.99
2018-07-06T02:23:47.081Z,99.99
2018-07-06T02:25:18.653Z,99.99
2018-07-06T02:26:50.524Z,99.99
2018-07-06T02:28:21.794Z,99.99
2018-07-06T02:29:53.366Z,99.99
2018-07-06T02:31:24.947Z,99.99
2018-07-06T02:32:56.510Z,99.99
2018-07-06T02:34:28.082Z,99.99
2018-07-06T02:35:59.651Z,99.99
2018-07-06T02:37:31.223Z,99.99
2018-07-06T02:39:02.801Z,99.99
2018-07-06T02:40:34.365Z,99.99
2018-07-06T02:42:05.936Z,99.99
2018-07-06T02:43:37.506Z,99.99
2018-07-06T02:45:09.431Z,99.99
2018-07-06T02:46:40.656Z,99.99
2018-07-06T02:48:12.220Z,99.99
2018-07-06T02:49:43.791Z,99.99
2018-07-06T02:51:15.463Z,99.99
2018-07-06T02:52:46.932Z,99.99
2018-07-06T02:54:18.507Z,99.99
2018-07-06T02:55:50.075Z,99.99
2018-07-06T02:57:21.796Z,99.99
2018-07-06T02:58:53.216Z,99.99
2018-07-06T03:00:24.791Z,99.99
2018-07-06T03:01:56.359Z,99.99
2018-07-06T03:03:28.033Z,99.99
2018-07-06T03:04:59.511Z,99.99
2018-07-06T03:06:31.071Z,99.99
2018-07-06T03:08:02.643Z,99.99
2018-07-06T03:09:34.214Z,99.99
2018-07-06T03:11:05.789Z,99.99
2018-07-06T03:12:37.354Z,99.99
2018-07-06T03:14:08.925Z,99.99
2018-07-06T03:15:40.747Z,99.99
2018-07-06T03:17:12.068Z,99.99
2018-07-06T03:18:43.638Z,99.99
2018-07-06T03:20:15.209Z,99.99
2018-07-06T03:21:47.030Z,99.99
2018-07-06T03:23:18.350Z,99.99
2018-07-06T03:24:49.923Z,99.99
2018-07-06T03:26:21.492Z,99.99
2018-07-06T03:27:53.225Z,99.99
2018-07-06T03:29:24.633Z,99.99
2018-07-06T03:30:56.205Z,99.99
2018-07-06T03:32:27.775Z,99.99
2018-07-06T03:33:59.345Z,99.99
2018-07-06T03:35:30.916Z,99.49
2018-07-06T03:37:02.487Z,96.56
2018-07-06T03:38:34.058Z,96.99
2018-07-06T03:40:05.728Z,99.20
2018-07-06T03:41:37.199Z,99.99
2018-07-06T03:43:08.770Z,99.99
2018-07-06T03:44:40.342Z,99.99
2018-07-06T03:46:11.912Z,99.99
2018-07-06T03:47:43.483Z,99.99
2018-07-06T03:49:15.054Z,99.99
2018-07-06T03:50:46.625Z,99.91
2018-07-06T03:52:18.298Z,99.99
2018-07-06T03:53:49.768Z,99.63
2018-07-06T03:56:52.908Z,98.10
2018-07-06T03:58:24.780Z,96.99
2018-07-06T03:59:56.052Z,97.86
2018-07-06T04:01:27.625Z,99.99
2018-07-06T04:02:59.193Z,99.99
2018-07-06T04:04:30.763Z,99.99
2018-07-06T04:06:02.335Z,99.99
2018-07-06T04:07:33.906Z,99.99
2018-07-06T04:09:05.479Z,99.99
2018-07-06T04:10:37.048Z,99.99
2018-07-06T04:12:08.618Z,99.99
2018-07-06T04:13:40.189Z,99.99
2018-07-06T04:15:11.762Z,99.99
2018-07-06T04:16:43.700Z,99.99
2018-07-06T04:18:14.901Z,99.99
2018-07-06T04:19:46.472Z,99.99
2018-07-06T04:21:18.044Z,99.99
2018-07-06T04:22:49.763Z,99.99
2018-07-06T04:24:21.184Z,99.99
2018-07-06T04:25:52.769Z,99.99
2018-07-06T04:27:24.329Z,99.99
2018-07-06T04:28:55.900Z,99.99
2018-07-06T04:30:27.467Z,99.99
2018-07-06T04:31:59.038Z,99.99
2018-07-06T04:33:30.625Z,99.99
2018-07-06T04:35:02.280Z,97.86
2018-07-06T04:36:33.752Z,95.94
2018-07-06T04:38:05.321Z,97.19
2018-07-06T04:39:36.892Z,98.19
2018-07-06T04:41:08.464Z,99.99
2018-07-06T04:42:40.035Z,99.99
2018-07-06T04:44:11.621Z,99.99
2018-07-06T04:45:43.176Z,99.99
2018-07-06T04:47:14.997Z,99.99
2018-07-06T04:48:46.317Z,99.99
2018-07-06T04:50:17.892Z,99.58
2018-07-06T04:51:49.459Z,99.10
2018-07-06T04:53:21.130Z,99.87
2018-07-06T04:54:52.601Z,99.99
2018-07-06T04:56:24.172Z,99.99
2018-07-06T04:57:55.743Z,99.82
2018-07-06T04:59:27.313Z,99.34
2018-07-06T05:00:58.884Z,99.49
2018-07-06T05:02:30.459Z,98.33
2018-07-06T05:04:02.029Z,98.05
2018-07-06T05:05:33.596Z,96.37
2018-07-06T05:07:05.167Z,95.98
2018-07-06T05:08:36.838Z,95.41
2018-07-06T05:10:08.308Z,96.70
2018-07-06T05:11:39.980Z,97.19
2018-07-06T05:13:11.449Z,95.89
2018-07-06T05:14:43.020Z,96.08
2018-07-06T05:16:14.592Z,95.41
2018-07-06T05:17:46.416Z,96.18
2018-07-06T05:19:17.732Z,96.08
2018-07-06T05:20:49.303Z,96.61
2018-07-06T05:22:20.874Z,97.38
2018-07-06T05:23:52.545Z,97.86
2018-07-06T05:25:24.015Z,97.76
2018-07-06T05:26:55.585Z,98.53
2018-07-06T05:28:27.157Z,97.76
2018-07-06T05:29:58.977Z,95.60
2018-07-06T05:31:30.298Z,95.03
2018-07-06T05:33:01.869Z,96.13
2018-07-06T05:34:33.440Z,97.86
2018-07-06T05:36:05.011Z,97.86
2018-07-06T05:37:36.581Z,97.38
2018-07-06T05:39:08.153Z,96.18
2018-07-06T05:40:39.723Z,96.22
2018-07-06T05:42:11.295Z,96.99
2018-07-06T05:43:42.865Z,98.14
2018-07-06T05:45:14.437Z,97.86
2018-07-06T05:46:46.007Z,97.28
2018-07-06T05:48:17.929Z,97.95
2018-07-06T05:49:49.149Z,97.66
2018-07-06T05:51:20.720Z,97.56
2018-07-06T05:52:52.291Z,97.56
2018-07-06T05:54:24.014Z,98.05
2018-07-06T05:55:55.432Z,97.09
2018-07-06T05:57:27.004Z,97.28
2018-07-06T05:58:58.574Z,97.76
2018-07-06T06:00:30.147Z,98.43
2018-07-06T06:02:01.717Z,98.28
2018-07-06T06:03:33.288Z,98.33
2018-07-06T06:05:04.859Z,98.82
2018-07-06T06:06:36.530Z,98.62
2018-07-06T06:08:08.000Z,97.09
2018-07-06T06:09:39.574Z,96.13
2018-07-06T06:11:11.143Z,96.03
2018-07-06T06:12:42.713Z,96.13
2018-07-06T06:14:14.285Z,96.32
2018-07-06T06:15:45.856Z,97.52
2018-07-06T06:17:17.426Z,99.99
2018-07-06T06:18:49.200Z,99.99
2018-07-06T06:20:20.568Z,99.99
2018-07-06T06:21:52.139Z,99.99
2018-07-06T06:23:23.710Z,99.99
2018-07-06T06:24:55.635Z,99.99
2018-07-06T06:26:26.852Z,99.99
2018-07-06T06:27:58.422Z,99.73
2018-07-06T06:29:30.005Z,99.82
2018-07-06T06:31:01.565Z,99.20
2018-07-06T06:32:33.135Z,98.24
2018-07-06T06:34:04.707Z,98.33
2018-07-06T06:35:36.277Z,98.62
2018-07-06T06:37:07.847Z,98.77
2018-07-06T06:38:39.417Z,99.87
2018-07-06T06:40:10.990Z,99.99
2018-07-06T06:41:42.561Z,99.99
2018-07-06T06:43:14.631Z,99.99
2018-07-06T06:44:45.792Z,99.99
2018-07-06T06:46:17.271Z,99.99
2018-07-06T06:47:48.842Z,99.99
2018-07-06T06:49:20.667Z,99.99
2018-07-06T06:50:51.984Z,99.99
2018-07-06T06:52:23.557Z,99.99
2018-07-06T06:53:55.125Z,99.99
2018-07-06T06:55:26.849Z,99.99
2018-07-06T06:56:58.267Z,99.99
2018-07-06T06:58:29.837Z,99.99
2018-07-06T07:00:01.408Z,99.99
2018-07-06T07:01:33.129Z,99.99
2018-07-06T07:03:04.551Z,99.99
2018-07-06T07:04:36.120Z,99.99
2018-07-06T07:06:07.695Z,99.99
2018-07-06T07:07:39.264Z,99.99
2018-07-06T07:09:10.831Z,99.77
2018-07-06T07:10:42.403Z,99.05
2018-07-06T07:12:13.973Z,97.71
2018-07-06T07:13:45.706Z,97.86
2018-07-06T07:15:17.117Z,97.52
2018-07-06T07:16:48.685Z,99.15
2018-07-06T07:18:20.256Z,99.99
2018-07-06T07:19:52.178Z,99.99
2018-07-06T07:21:23.398Z,99.99
2018-07-06T07:22:54.971Z,99.99
2018-07-06T07:24:26.541Z,99.58
2018-07-06T07:25:58.214Z,98.86
2018-07-06T07:27:29.682Z,99.99
2018-07-06T07:29:01.252Z,99.99
2018-07-06T07:30:32.823Z,99.99
2018-07-06T07:32:04.556Z,99.99
2018-07-06T07:33:35.965Z,99.99
2018-07-06T07:35:07.536Z,99.99
2018-07-06T07:36:39.106Z,99.99
2018-07-06T07:38:10.777Z,99.99
2018-07-06T07:39:42.248Z,98.38
2018-07-06T07:41:13.819Z,98.05
2018-07-06T07:42:45.389Z,97.19
2018-07-06T07:44:17.110Z,95.84
2018-07-06T07:45:48.531Z,95.07
2018-07-06T07:47:20.101Z,96.99
2018-07-06T07:48:51.672Z,97.33
2018-07-06T07:50:23.493Z,98.57
2018-07-06T07:51:54.814Z,99.99
2018-07-06T07:53:26.388Z,99.99
2018-07-06T07:54:57.965Z,99.99
2018-07-06T07:56:29.726Z,99.05
2018-07-06T07:58:01.154Z,97.33
2018-07-06T07:59:32.724Z,96.99
2018-07-06T08:01:04.397Z,96.27
2018-07-06T08:02:35.960Z,97.71
2018-07-06T08:04:07.381Z,97.33
2018-07-06T08:05:38.951Z,97.81
2018-07-06T08:07:10.522Z,97.90
2018-07-06T08:08:42.093Z,97.85
2018-07-06T08:10:13.665Z,98.62
2018-07-06T08:11:45.272Z,99.39
2018-07-06T08:13:16.806Z,99.39
2018-07-06T08:14:48.678Z,99.15
2018-07-06T08:16:19.948Z,98.57
2018-07-06T08:17:51.519Z,97.81
2018-07-06T08:19:23.094Z,98.62
2018-07-06T08:20:54.913Z,99.68
2018-07-06T08:22:26.232Z,99.99
2018-07-06T08:23:57.804Z,99.99
2018-07-06T08:25:29.379Z,99.99
2018-07-06T08:27:01.047Z,99.99
2018-07-06T08:28:32.517Z,99.99
2018-07-06T08:30:04.088Z,99.99
2018-07-06T08:31:35.717Z,99.96
2018-07-06T08:33:07.530Z,99.99
2018-07-06T08:34:38.802Z,99.99
2018-07-06T08:36:10.371Z,99.99
2018-07-06T08:37:41.947Z,99.99
2018-07-06T08:39:13.613Z,99.99
2018-07-06T08:40:45.084Z,99.99
2018-07-06T08:42:16.654Z,99.99
2018-07-06T08:43:48.226Z,99.99
2018-07-06T08:45:19.899Z,99.99
2018-07-06T08:46:51.366Z,99.99
2018-07-06T08:48:22.936Z,99.99
2018-07-06T08:49:54.507Z,99.99
2018-07-06T08:51:26.178Z,99.99
2018-07-06T08:52:57.648Z,99.99
2018-07-06T08:54:29.218Z,99.99
2018-07-06T08:56:00.788Z,99.99
2018-07-06T08:57:32.525Z,99.99
2018-07-06T08:59:03.927Z,99.99
2018-07-06T09:00:35.498Z,99.99
2018-07-06T09:02:07.072Z,99.99
2018-07-06T09:03:38.637Z,99.99
2018-07-06T09:05:10.207Z,99.99
2018-07-06T09:06:41.777Z,99.99
2018-07-06T09:08:13.346Z,99.99
2018-07-06T09:09:45.025Z,99.99
2018-07-06T09:11:16.486Z,99.99
2018-07-06T09:12:48.055Z,99.99
2018-07-06T09:14:19.624Z,99.99
2018-07-06T09:15:51.295Z,99.99
2018-07-06T09:17:22.765Z,99.99
2018-07-06T09:18:54.334Z,99.99
2018-07-06T09:20:25.904Z,99.99
2018-07-06T09:21:57.724Z,99.99
2018-07-06T09:23:29.043Z,99.99
2018-07-06T09:25:00.612Z,99.99
2018-07-06T09:26:32.182Z,99.99
2018-07-06T09:28:04.051Z,99.99
2018-07-06T09:29:35.320Z,99.99
2018-07-06T09:31:06.890Z,99.99
2018-07-06T09:32:38.460Z,99.99
2018-07-06T09:34:10.030Z,99.99
2018-07-06T09:35:41.598Z,99.99
2018-07-06T09:37:13.169Z,99.99
2018-07-06T09:38:44.740Z,99.99
2018-07-06T09:40:16.308Z,99.99
2018-07-06T09:41:47.879Z,99.99
2018-07-06T09:43:19.464Z,99.99
2018-07-06T09:44:51.017Z,99.99
2018-07-06T09:46:22.788Z,99.99
2018-07-06T09:47:54.157Z,99.99
2018-07-06T09:49:25.731Z,99.99
2018-07-06T09:50:57.307Z,99.99
2018-07-06T09:52:29.121Z,99.99
2018-07-06T09:54:00.436Z,99.99
2018-07-06T09:55:32.006Z,99.99
2018-07-06T09:57:03.581Z,99.99
2018-07-06T09:58:35.145Z,99.99
2018-07-06T10:00:06.717Z,99.99
2018-07-06T10:01:38.286Z,99.99
2018-07-06T10:03:09.856Z,99.99
2018-07-06T10:04:41.528Z,99.99
2018-07-06T10:06:12.997Z,99.99
2018-07-06T10:07:44.569Z,99.99
2018-07-06T10:09:16.139Z,99.99
2018-07-06T10:10:47.712Z,99.99
2018-07-06T10:12:19.279Z,99.99
2018-07-06T10:13:50.849Z,99.99
2018-07-06T10:15:22.420Z,99.99
2018-07-06T10:16:54.294Z,99.99
2018-07-06T10:18:25.562Z,99.99
2018-07-06T10:19:57.133Z,99.99
2018-07-06T10:21:28.703Z,99.99
2018-07-06T10:23:00.374Z,99.99
2018-07-06T10:24:31.844Z,99.99
2018-07-06T10:26:03.417Z,99.99
2018-07-06T10:27:34.987Z,99.99
2018-07-06T10:29:06.558Z,99.99
2018-07-06T10:30:38.140Z,99.99
2018-07-06T10:32:09.701Z,99.99
2018-07-06T10:33:41.295Z,99.99
2018-07-06T10:35:12.843Z,99.99
2018-07-06T10:36:44.947Z,99.99
2018-07-06T10:38:15.988Z,99.99
2018-07-06T10:39:47.692Z,99.99
2018-07-06T10:41:19.230Z,99.99
2018-07-06T10:42:50.702Z,99.99
2018-07-06T10:44:22.310Z,99.77
2018-07-06T10:45:53.850Z,99.87
2018-07-06T10:47:25.424Z,99.10
2018-07-06T10:48:56.991Z,98.91
2018-07-06T10:50:28.766Z,99.20
2018-07-06T10:52:00.138Z,99.20
2018-07-06T10:53:31.833Z,99.99
2018-07-06T10:55:03.283Z,99.10
2018-07-06T10:56:35.462Z,99.10
2018-07-06T10:58:06.428Z,97.76
2018-07-06T10:59:38.308Z,97.42
2018-07-06T11:01:09.577Z,97.09
2018-07-06T11:02:41.149Z,97.76
2018-07-06T11:04:12.723Z,97.96
2018-07-06T11:05:44.296Z,99.54
2018-07-06T11:07:15.871Z,99.99
2018-07-06T11:08:47.444Z,99.99
2018-07-06T11:10:19.020Z,99.99
2018-07-06T11:13:22.369Z,95.26
2018-07-06T11:14:53.741Z,94.64
2018-07-06T11:16:25.315Z,93.87
2018-07-06T11:17:56.892Z,93.01
2018-07-06T11:19:29.197Z,92.24
2018-07-06T11:21:00.044Z,93.10
2018-07-06T11:22:31.615Z,92.91
2018-07-06T11:24:03.364Z,92.52
2018-07-06T11:25:34.914Z,92.05
2018-07-06T11:27:06.341Z,92.72
2018-07-06T11:28:38.115Z,92.91
2018-07-06T11:30:09.487Z,93.96
2018-07-06T11:31:41.063Z,93.73
2018-07-06T11:33:12.638Z,92.86
2018-07-06T11:34:44.211Z,90.84
2018-07-06T11:36:15.787Z,91.80
2018-07-06T11:37:47.525Z,90.79
2018-07-06T11:39:19.240Z,90.79
2018-07-06T11:40:50.512Z,89.35
2018-07-06T11:42:22.089Z,92.76
2018-07-06T11:43:53.764Z,94.78
2018-07-06T11:46:56.815Z,90.31
2018-07-06T11:48:28.389Z,88.09
2018-07-06T11:49:59.965Z,84.32
2018-07-06T11:51:31.543Z,84.18
2018-07-06T11:53:03.125Z,85.87
2018-07-06T11:54:34.694Z,85.97
2018-07-06T11:56:06.481Z,87.80
2018-07-06T11:57:37.848Z,87.12
2018-07-06T11:59:09.432Z,82.53
2018-07-06T12:00:41.002Z,80.93
2018-07-06T12:02:12.579Z,82.39
2018-07-06T12:03:44.169Z,83.70
2018-07-06T12:05:16.038Z,85.78
2018-07-06T12:06:47.927Z,85.58
2018-07-06T12:08:19.826Z,87.03
2018-07-06T12:09:50.466Z,84.28
2018-07-06T12:11:22.051Z,81.96
2018-07-06T12:12:53.925Z,81.96
2018-07-06T12:15:56.877Z,81.22
2018-07-06T12:17:28.355Z,80.08
2018-07-06T12:18:59.935Z,78.31
2018-07-06T12:20:32.425Z,76.35
2018-07-06T12:22:03.093Z,73.65
2018-07-06T12:23:34.669Z,74.10
2018-07-06T12:25:06.248Z,70.62
2018-07-06T12:26:38.334Z,67.82
2018-07-06T12:28:09.413Z,72.30
2018-07-06T12:29:41.597Z,73.67
2018-07-06T12:31:12.572Z,75.57
2018-07-06T12:34:15.829Z,75.99
2018-07-06T12:35:47.312Z,75.79
2018-07-06T12:37:20.031Z,75.89
2018-07-06T12:38:50.492Z,76.24
2018-07-06T12:40:22.059Z,76.15
2018-07-06T12:41:53.634Z,74.58
2018-07-06T12:43:25.212Z,73.42
2018-07-06T12:44:56.791Z,71.17
2018-07-06T12:46:28.473Z,71.91
2018-07-06T12:47:59.953Z,69.79
2018-07-06T12:49:32.141Z,69.95
2018-07-06T12:51:03.422Z,72.42
2018-07-06T12:52:34.797Z,70.84
2018-07-06T12:58:41.103Z,70.52
2018-07-06T13:00:12.806Z,71.81
2018-07-06T13:01:44.182Z,68.08
2018-07-06T13:04:47.345Z,68.75
2018-07-06T13:07:50.507Z,70.24
2018-07-06T13:09:22.088Z,69.78
2018-07-06T13:10:54.574Z,71.68
2018-07-06T13:12:25.250Z,72.30
2018-07-06T13:13:57.033Z,70.50
2018-07-06T13:15:28.412Z,70.53
2018-07-06T13:17:00.094Z,65.69
2018-07-06T13:18:31.576Z,65.30
2018-07-06T13:20:03.688Z,64.14
2018-07-06T13:21:34.738Z,64.85
2018-07-06T13:23:06.324Z,67.01
2018-07-06T13:24:38.204Z,66.43
2018-07-06T13:27:41.369Z,58.44
2018-07-06T13:29:12.745Z,55.58
2018-07-06T13:30:44.232Z,53.50
2018-07-06T13:33:47.442Z,59.09
2018-07-06T13:35:19.508Z,57.86
2018-07-06T13:36:50.559Z,56.39
2018-07-06T13:38:22.250Z,53.50
2018-07-06T13:41:25.311Z,59.71
2018-07-06T13:42:56.893Z,60.46
2018-07-06T13:44:28.778Z,58.86
2018-07-06T13:46:00.058Z,55.27
2018-07-06T13:47:31.892Z,58.84
2018-07-06T13:49:03.228Z,58.29
2018-07-06T13:50:34.822Z,58.19
2018-07-06T13:52:06.392Z,58.55
2018-07-06T13:53:37.975Z,59.33
2018-07-06T13:55:09.862Z,59.61
2018-07-06T13:56:41.141Z,59.10
2018-07-06T13:59:44.408Z,58.39
2018-07-06T14:01:15.895Z,56.30
2018-07-06T14:04:19.056Z,52.06
2018-07-06T14:07:22.576Z,54.14
2018-07-06T14:11:56.979Z,51.26
2018-07-06T14:13:29.112Z,52.35
2018-07-06T14:16:32.258Z,54.99
2018-07-06T14:18:03.308Z,54.03
2018-07-06T14:19:35.078Z,51.07
2018-07-06T14:21:06.476Z,52.11
2018-07-06T14:22:38.296Z,51.99
2018-07-06T14:24:09.643Z,50.38
2018-07-06T14:25:41.663Z,50.95
2018-07-06T14:27:12.839Z,50.38
2018-07-06T14:28:44.397Z,50.29
2018-07-06T14:30:15.979Z,52.19
2018-07-06T14:31:47.814Z,52.76
2018-07-06T14:33:19.231Z,50.68
2018-07-06T14:34:50.743Z,50.87
2018-07-06T14:36:22.320Z,51.50
2018-07-06T14:37:54.007Z,51.17
2018-07-06T14:39:25.704Z,50.90
2018-07-06T14:40:57.398Z,51.55
2018-07-06T14:45:32.376Z,50.58
2018-07-06T14:48:35.199Z,48.80
2018-07-06T14:50:06.884Z,48.56
2018-07-06T14:51:38.164Z,49.56
2018-07-06T14:53:09.748Z,47.39
2018-07-06T14:54:41.342Z,47.53
2018-07-06T14:56:12.919Z,48.88
2018-07-06T14:57:44.754Z,48.17
2018-07-06T14:59:16.108Z,47.90
2018-07-06T15:00:47.674Z,46.64
2018-07-06T15:02:19.261Z,47.13
2018-07-06T15:03:50.945Z,47.53
2018-07-06T15:05:22.479Z,47.53
2018-07-06T15:06:54.250Z,46.69
2018-07-06T15:08:25.601Z,46.25
2018-07-06T15:09:57.289Z,44.45
2018-07-06T15:11:28.840Z,44.52
2018-07-06T15:13:00.369Z,44.71
2018-07-06T15:14:31.942Z,45.86
2018-07-06T15:17:35.212Z,44.49
2018-07-06T15:19:06.696Z,43.57
2018-07-06T15:20:38.285Z,44.71
2018-07-06T15:22:09.866Z,45.23
2018-07-06T15:26:44.823Z,42.47
2018-07-06T15:29:47.793Z,43.33
2018-07-06T15:31:19.930Z,42.30
2018-07-06T15:32:52.881Z,41.69
2018-07-06T15:34:22.551Z,42.18
2018-07-06T15:35:54.133Z,41.44
2018-07-06T15:37:25.718Z,40.37
2018-07-06T15:38:57.404Z,39.12
2018-07-06T15:40:28.888Z,39.29
2018-07-06T15:42:00.474Z,38.81
2018-07-06T15:43:32.062Z,38.98
2018-07-06T15:45:03.946Z,38.63
2018-07-06T15:46:35.230Z,37.89
2018-07-06T15:48:06.820Z,39.31
2018-07-06T15:49:38.462Z,39.61
2018-07-06T15:51:10.106Z,38.52
2018-07-06T15:52:41.574Z,39.75
2018-07-06T15:54:13.390Z,38.17
2018-07-06T15:55:44.741Z,37.39
2018-07-06T15:58:48.012Z,37.62
2018-07-06T16:00:19.497Z,39.34
2018-07-06T16:01:51.407Z,39.12
2018-07-06T16:03:22.769Z,40.39
2018-07-06T16:04:54.452Z,41.42
2018-07-06T16:06:25.831Z,41.13
2018-07-06T16:09:29.000Z,37.33
2018-07-06T16:12:32.366Z,37.21
2018-07-06T16:17:06.978Z,37.62
2018-07-06T16:18:38.568Z,38.59
2018-07-06T16:20:10.085Z,36.43
2018-07-06T16:21:42.191Z,37.19
2018-07-06T16:23:14.669Z,37.56
2018-07-06T16:24:45.950Z,37.46
2018-07-06T16:26:16.425Z,38.54
2018-07-06T16:29:19.591Z,37.04
2018-07-06T16:30:51.178Z,34.93
2018-07-06T16:32:22.760Z,32.84
2018-07-06T16:33:54.344Z,33.61
2018-07-06T16:35:25.930Z,32.07
2018-07-06T16:36:57.717Z,31.32
2018-07-06T16:38:29.405Z,33.43
2018-07-06T16:40:00.685Z,34.55
2018-07-06T16:41:32.303Z,35.59
2018-07-06T16:43:03.954Z,36.16
2018-07-06T16:46:07.024Z,36.63
2018-07-06T16:47:38.914Z,34.61
2018-07-06T16:49:10.372Z,33.48
2018-07-06T16:50:41.777Z,32.43
2018-07-06T16:52:13.400Z,34.05
2018-07-06T16:53:44.948Z,33.44
2018-07-06T16:55:17.411Z,33.92
2018-07-06T16:56:48.114Z,35.73
2018-07-06T16:58:19.905Z,35.42
2018-07-06T16:59:51.281Z,35.16
2018-07-06T17:01:23.116Z,33.69
2018-07-06T17:02:54.448Z,31.88
2018-07-06T17:04:26.065Z,31.51
2018-07-06T17:09:00.788Z,29.08
2018-07-06T17:10:32.369Z,30.05
2018-07-06T17:12:03.958Z,28.71
2018-07-06T17:13:35.568Z,29.22
2018-07-06T17:15:07.281Z,27.57
2018-07-06T17:18:10.803Z,30.57
2018-07-06T17:21:13.715Z,33.12
2018-07-06T17:22:45.199Z,35.03
2018-07-06T17:24:16.663Z,35.19
2018-07-06T17:25:48.216Z,36.65
2018-07-06T17:31:54.555Z,34.39
2018-07-06T17:34:57.922Z,34.95
2018-07-06T17:36:29.838Z,35.70
2018-07-06T17:38:00.963Z,36.05
2018-07-06T17:39:32.503Z,34.92
2018-07-06T17:41:04.157Z,35.02
2018-07-06T17:42:35.673Z,34.94
2018-07-06T17:44:07.223Z,33.98
2018-07-06T17:45:38.836Z,34.35
2018-07-06T17:47:10.902Z,34.22
2018-07-06T17:48:41.973Z,34.06
2018-07-06T17:50:13.690Z,34.27
2018-07-06T17:51:45.141Z,32.75
2018-07-06T17:54:48.309Z,31.79
2018-07-06T17:56:19.918Z,30.09
2018-07-06T17:59:23.465Z,27.45
2018-07-06T18:00:55.275Z,28.01
2018-07-06T18:02:26.466Z,28.71
2018-07-06T18:03:57.813Z,29.02
2018-07-06T18:05:29.600Z,27.53
2018-07-06T18:07:00.983Z,27.81
2018-07-06T18:08:32.566Z,28.59
2018-07-06T18:10:04.150Z,28.51
2018-07-06T18:11:35.962Z,28.20
2018-07-06T18:13:07.328Z,28.01
2018-07-06T18:14:38.904Z,28.78
2018-07-06T18:19:13.807Z,30.10
2018-07-06T18:20:45.241Z,29.42
2018-07-06T18:23:48.410Z,29.44
2018-07-06T18:25:19.994Z,28.67
2018-07-06T18:26:51.584Z,28.57
2018-07-06T18:28:23.195Z,27.80
2018-07-06T18:29:54.746Z,28.09
2018-07-06T18:31:26.330Z,28.69
2018-07-06T18:32:57.919Z,27.81
2018-07-06T18:36:01.084Z,28.77
2018-07-06T18:37:32.795Z,28.58
2018-07-06T18:39:04.279Z,29.34
2018-07-06T18:40:36.038Z,30.02
2018-07-06T18:43:39.000Z,29.99
2018-07-06T18:45:10.585Z,31.65
2018-07-06T18:46:42.243Z,31.56
2018-07-06T18:49:45.335Z,31.84
2018-07-06T18:51:16.917Z,31.92
2018-07-06T18:54:20.286Z,33.40
2018-07-06T18:55:51.766Z,32.91
2018-07-06T18:57:23.250Z,33.31
2018-07-06T18:58:54.831Z,32.43
2018-07-06T19:00:26.440Z,32.53
2018-07-06T19:01:57.997Z,32.92
2018-07-06T19:05:01.163Z,33.89
2018-07-06T19:06:32.745Z,33.67
2018-07-06T19:08:04.327Z,34.05
2018-07-06T19:09:36.213Z,33.75
2018-07-06T19:11:08.025Z,33.65
2018-07-06T19:12:39.109Z,33.46
2018-07-06T19:14:10.758Z,35.12
2018-07-06T19:15:42.239Z,34.61
2018-07-06T19:17:13.820Z,34.81
2018-07-06T19:18:45.406Z,35.78
2018-07-06T19:20:16.985Z,35.41
2018-07-06T19:21:48.566Z,36.10
2018-07-06T19:23:20.148Z,35.96
2018-07-06T19:24:51.729Z,36.37
2018-07-06T19:26:23.613Z,37.43
2018-07-06T19:27:54.893Z,37.15
2018-07-06T19:29:26.474Z,37.21
2018-07-06T19:30:58.118Z,37.79
2018-07-06T19:32:29.941Z,37.19
2018-07-06T19:34:01.222Z,39.34
2018-07-06T19:35:32.800Z,37.39
2018-07-06T19:37:04.380Z,38.17
2018-07-06T19:38:35.963Z,38.56
2018-07-06T19:40:07.549Z,39.69
2018-07-06T19:41:39.122Z,39.78
2018-07-06T19:43:10.702Z,40.85
2018-07-06T19:44:42.283Z,40.66
2018-07-06T19:46:13.865Z,41.14
2018-07-06T19:47:45.445Z,41.80
2018-07-06T19:49:17.025Z,41.20
2018-07-06T19:50:49.407Z,44.95
2018-07-06T19:52:20.187Z,44.44
2018-07-06T19:53:51.769Z,44.15
2018-07-06T19:55:26.000Z,47.13
2018-07-06T19:56:54.932Z,46.48
2018-07-06T19:58:26.597Z,52.90
2018-07-06T19:59:58.085Z,51.13
2018-07-06T20:01:29.674Z,48.42
2018-07-06T20:03:01.551Z,49.75
2018-07-06T20:04:32.825Z,50.24
2018-07-06T20:06:04.408Z,50.60
2018-07-06T20:07:35.983Z,50.50
2018-07-06T20:09:07.665Z,49.54
2018-07-06T20:10:39.139Z,49.34
2018-07-06T20:12:10.726Z,49.15
2018-07-06T20:13:42.297Z,50.12
2018-07-06T20:15:13.875Z,50.50
2018-07-06T20:18:17.086Z,50.48
2018-07-06T20:19:48.619Z,49.82
2018-07-06T20:21:20.289Z,49.12
2018-07-06T20:22:51.766Z,54.35
2018-07-06T20:24:23.548Z,53.35
2018-07-06T20:25:54.923Z,56.35
2018-07-06T20:27:26.600Z,55.93
2018-07-06T20:28:58.093Z,54.29
2018-07-06T20:30:29.661Z,58.73
2018-07-06T20:32:01.233Z,56.20
2018-07-06T20:33:32.810Z,58.12
2018-07-06T20:35:04.387Z,60.22
2018-07-06T20:36:36.039Z,60.51
2018-07-06T20:38:07.541Z,62.99
2018-07-06T20:39:39.119Z,68.68
2018-07-06T20:41:10.696Z,70.76
2018-07-06T20:42:42.279Z,71.12
2018-07-06T20:44:13.849Z,68.04
2018-07-06T20:45:45.525Z,66.55
2018-07-06T20:47:17.001Z,65.98
2018-07-06T20:48:48.578Z,65.63
2018-07-06T20:50:20.155Z,64.76
2018-07-06T20:51:51.830Z,65.24
2018-07-06T20:53:23.306Z,65.98
2018-07-06T20:54:54.882Z,68.58
2018-07-06T20:56:26.458Z,70.21
2018-07-06T20:57:58.034Z,72.11